Terminal Aerodrome Forecast
Issued by NWS Jackson, KY

Home | Current Version | Previous Version | Text Only | Print | Product List | Glossary On
Versions: 1 2 3 4 5 6 7 8 9 10 11 12 13 14
931
FTUS43 KJKL 180527
TAFLOZ
TAF
KLOZ 180527Z 1806/1906 28009KT P6SM BKN015 OVC020
     FM180800 VRB04KT P6SM BKN010
     FM181200 VRB03KT P6SM SCT030
     FM181600 VRB04KT P6SM SCT200=

USA.gov is the U.S. government's official web portal to all federal, state and local government web resources and services.